Time;durP1;ratioP1;P1;durP2;ratioP2;P2;SDS_P1;SDS_P2;PMS_P1;PMS_P2;Temp;Humidity;BMP_temperature;BMP_pressure;BME280_temperature;BME280_humidity;BME280_pressure;Samples;Min_cycle;Max_cycle;Signal;HPM_P1;HPM_P2
2024/02/07 00:01:36;;;;;;;5.50;1.40;;;10.50;99.90;;;;;;4205591;28;20209;-76
2024/02/07 00:03:38;;;;;;;3.93;1.50;;;10.50;99.90;;;;;;4193529;28;20197;-76
2024/02/07 00:05:40;;;;;;;6.47;1.60;;;10.50;99.90;;;;;;4209222;28;20208;-75
2024/02/07 00:07:44;;;;;;;4.73;1.53;;;10.60;99.90;;;;;;4204010;28;20217;-76
2024/02/07 00:09:46;;;;;;;4.47;1.70;;;10.60;99.90;;;;;;4211090;28;20274;-76
2024/02/07 00:11:49;;;;;;;4.67;1.57;;;10.60;99.90;;;;;;4210464;28;20208;-76
2024/02/07 00:13:51;;;;;;;4.70;1.87;;;10.60;99.90;;;;;;4210295;28;20271;-76
2024/02/07 00:15:53;;;;;;;7.70;1.87;;;10.60;99.90;;;;;;4209813;28;20602;-76
2024/02/07 00:17:55;;;;;;;3.03;1.40;;;10.60;99.90;;;;;;4210272;28;20277;-76
2024/02/07 00:19:57;;;;;;;6.90;1.67;;;10.60;99.90;;;;;;4210638;28;20304;-76
2024/02/07 00:21:58;;;;;;;6.00;1.80;;;10.60;99.90;;;;;;4211764;28;20233;-75
2024/02/07 00:24:00;;;;;;;8.23;1.60;;;10.60;99.90;;;;;;4209167;28;20205;-76
2024/02/07 00:26:02;;;;;;;3.57;1.30;;;10.60;99.90;;;;;;4215492;28;20204;-75
2024/02/07 00:28:06;;;;;;;6.43;1.80;;;10.60;99.90;;;;;;4211022;28;20212;-76
2024/02/07 00:30:10;;;;;;;6.13;1.57;;;10.60;99.90;;;;;;4208361;28;20282;-75
2024/02/07 00:32:11;;;;;;;7.77;1.80;;;10.60;99.90;;;;;;4210084;28;20225;-76
2024/02/07 00:34:13;;;;;;;6.13;1.87;;;10.60;99.90;;;;;;4200856;28;20220;-76
2024/02/07 00:36:15;;;;;;;8.83;1.97;;;10.60;99.90;;;;;;4211629;28;20255;-76
2024/02/07 00:38:17;;;;;;;6.67;1.83;;;10.60;99.90;;;;;;4214150;28;20220;-75
2024/02/07 00:40:19;;;;;;;5.87;1.97;;;10.60;99.90;;;;;;4209539;28;20837;-75
2024/02/07 00:42:21;;;;;;;5.37;2.00;;;10.60;99.90;;;;;;4215730;28;20656;-75
2024/02/07 00:44:24;;;;;;;8.23;2.03;;;10.60;99.90;;;;;;4192280;28;20663;-76
2024/02/07 00:46:26;;;;;;;3.27;1.70;;;10.60;99.90;;;;;;4216238;28;20864;-75
2024/02/07 00:48:30;;;;;;;9.07;2.50;;;10.60;99.90;;;;;;4212425;28;20265;-76
2024/02/07 00:50:32;;;;;;;5.90;1.87;;;10.60;99.90;;;;;;4214380;28;20228;-76
2024/02/07 00:52:34;;;;;;;8.63;1.80;;;10.60;99.90;;;;;;4210598;28;20212;-76
2024/02/07 00:54:36;;;;;;;6.37;2.27;;;10.60;99.90;;;;;;4196670;28;20201;-76
2024/02/07 00:56:37;;;;;;;4.23;1.93;;;10.60;99.90;;;;;;4213565;28;20208;-76
2024/02/07 00:58:40;;;;;;;7.27;2.17;;;10.60;99.90;;;;;;4208632;28;20205;-76
2024/02/07 01:00:43;;;;;;;6.43;1.90;;;10.60;99.90;;;;;;4214702;28;20217;-76
2024/02/07 01:02:45;;;;;;;5.67;1.97;;;10.60;99.90;;;;;;4214754;28;20695;-76
2024/02/07 01:04:47;;;;;;;8.80;2.03;;;10.70;99.90;;;;;;4192838;28;20203;-76
2024/02/07 01:06:49;;;;;;;5.30;2.20;;;10.60;99.90;;;;;;4214178;28;20216;-76
2024/02/07 01:08:51;;;;;;;6.23;2.30;;;10.60;99.90;;;;;;4210579;28;20255;-76
2024/02/07 01:10:52;;;;;;;4.83;1.93;;;10.60;99.90;;;;;;4216522;28;20260;-76
2024/02/07 01:12:54;;;;;;;4.03;1.80;;;10.60;99.90;;;;;;4213955;28;20209;-76
2024/02/07 01:14:56;;;;;;;5.30;2.00;;;10.60;99.90;;;;;;4212431;28;20577;-76
2024/02/07 01:16:59;;;;;;;4.77;1.70;;;10.60;99.90;;;;;;4213654;28;20247;-76
2024/02/07 01:19:00;;;;;;;6.20;1.57;;;10.60;99.90;;;;;;4206348;28;20213;-76
2024/02/07 01:21:02;;;;;;;8.67;1.87;;;10.60;99.90;;;;;;4212788;28;20232;-76
2024/02/07 01:23:04;;;;;;;5.17;2.10;;;10.60;99.90;;;;;;4211306;28;20208;-76
2024/02/07 01:25:07;;;;;;;6.80;2.10;;;10.60;99.90;;;;;;4209008;28;20207;-75
2024/02/07 01:27:10;;;;;;;7.63;2.27;;;10.60;99.90;;;;;;4211447;28;20204;-76
2024/02/07 01:29:12;;;;;;;7.37;1.80;;;10.60;99.90;;;;;;4195850;28;20292;-76
2024/02/07 01:31:14;;;;;;;8.60;1.97;;;10.50;99.90;;;;;;4215724;28;20260;-75
2024/02/07 01:33:17;;;;;;;7.27;2.03;;;10.50;99.90;;;;;;4211130;28;20299;-76
2024/02/07 01:35:19;;;;;;;10.07;2.23;;;10.50;99.90;;;;;;4211015;28;20234;-76
2024/02/07 01:37:21;;;;;;;8.97;1.70;;;10.60;99.90;;;;;;4213364;28;20216;-76
2024/02/07 01:39:23;;;;;;;5.57;2.00;;;10.60;99.90;;;;;;4195049;28;20209;-77
2024/02/07 01:41:25;;;;;;;8.20;2.03;;;10.50;99.90;;;;;;4210089;28;20296;-76
2024/02/07 01:43:28;;;;;;;8.57;2.03;;;10.60;99.90;;;;;;4214338;28;20669;-76
2024/02/07 01:45:31;;;;;;;5.37;1.70;;;10.60;99.90;;;;;;4195538;28;20648;-76
2024/02/07 01:47:33;;;;;;;5.83;2.00;;;10.60;99.90;;;;;;4212506;28;20295;-76
2024/02/07 01:49:36;;;;;;;7.80;1.90;;;10.60;99.90;;;;;;4212761;28;20243;-76
2024/02/07 01:51:38;;;;;;;9.40;1.80;;;10.60;99.90;;;;;;4192103;28;20313;-76
2024/02/07 01:53:41;;;;;;;8.90;2.13;;;10.60;99.90;;;;;;4215414;28;20245;-76
2024/02/07 01:55:44;;;;;;;5.70;2.20;;;10.60;99.90;;;;;;4213563;28;20212;-76
2024/02/07 01:57:47;;;;;;;6.27;1.93;;;10.60;99.90;;;;;;4213663;28;20295;-77
2024/02/07 01:59:50;;;;;;;11.17;2.17;;;10.60;99.90;;;;;;4194396;28;20208;-76
2024/02/07 02:01:52;;;;;;;4.30;2.00;;;10.60;99.90;;;;;;4213645;28;20219;-76
2024/02/07 02:03:54;;;;;;;6.87;1.90;;;10.60;99.90;;;;;;4211580;28;20303;-76
2024/02/07 02:05:57;;;;;;;5.00;2.00;;;10.60;99.90;;;;;;4213599;28;20281;-75
2024/02/07 02:07:59;;;;;;;6.50;1.63;;;10.60;99.90;;;;;;4211966;28;20236;-76
2024/02/07 02:10:01;;;;;;;4.87;1.67;;;10.70;99.90;;;;;;4213410;28;20293;-76
2024/02/07 02:12:04;;;;;;;6.43;1.77;;;10.60;99.90;;;;;;4217992;28;20192;-76
2024/02/07 02:14:07;;;;;;;8.03;2.07;;;10.60;99.90;;;;;;4212379;28;20205;-75
2024/02/07 02:16:09;;;;;;;6.63;2.20;;;10.60;99.90;;;;;;4218063;28;20223;-76
2024/02/07 02:18:11;;;;;;;5.20;1.50;;;10.70;99.90;;;;;;4212173;28;20224;-75
2024/02/07 02:20:16;;;;;;;5.90;2.30;;;10.60;99.90;;;;;;4211461;28;20279;-76
2024/02/07 02:22:39;;;;;;;5.20;1.67;;;10.60;99.90;;;;;;4210940;28;20217;-75
2024/02/07 02:25:00;;;;;;;7.60;1.90;;;10.60;99.90;;;;;;4193446;28;20301;-76
2024/02/07 02:27:21;;;;;;;4.73;1.53;;;10.60;99.90;;;;;;4212946;28;20239;-75
2024/02/07 02:29:32;;;;;;;4.57;1.67;;;10.60;99.90;;;;;;4210149;28;20672;-76
2024/02/07 02:31:37;;;;;;;4.03;1.40;;;10.60;99.90;;;;;;4213760;28;20793;-75
2024/02/07 02:33:39;;;;;;;8.73;1.90;;;10.60;99.90;;;;;;4212089;28;20201;-75
2024/02/07 02:35:44;;;;;;;7.47;1.80;;;10.70;99.90;;;;;;4201179;28;20554;-75
2024/02/07 02:37:48;;;;;;;6.27;1.97;;;10.70;99.90;;;;;;4213149;28;20200;-75
2024/02/07 02:39:51;;;;;;;5.27;1.87;;;10.60;99.90;;;;;;4211039;28;20238;-75
2024/02/07 02:41:52;;;;;;;5.13;1.30;;;10.60;99.90;;;;;;4210759;28;20205;-75
2024/02/07 02:43:54;;;;;;;6.40;1.70;;;10.60;99.90;;;;;;4214143;28;20247;-75
2024/02/07 02:45:58;;;;;;;5.23;1.60;;;10.60;99.90;;;;;;4213027;28;20205;-75
2024/02/07 02:47:59;;;;;;;4.13;1.60;;;10.60;99.90;;;;;;4212628;28;20212;-75
2024/02/07 02:50:02;;;;;;;7.07;1.73;;;10.60;99.90;;;;;;4204117;28;20230;-75
2024/02/07 02:52:03;;;;;;;3.73;1.63;;;10.60;99.90;;;;;;4212383;28;20260;-75
2024/02/07 02:54:06;;;;;;;6.90;1.80;;;10.60;99.90;;;;;;4213314;28;20212;-75
2024/02/07 02:56:09;;;;;;;3.53;1.60;;;10.60;99.90;;;;;;4212188;28;20208;-76
2024/02/07 02:58:11;;;;;;;7.00;1.70;;;10.60;99.90;;;;;;4210969;28;20213;-75
2024/02/07 03:00:16;;;;;;;4.73;1.60;;;10.70;99.90;;;;;;4210882;28;20240;-75
2024/02/07 03:02:20;;;;;;;6.63;1.60;;;10.60;99.90;;;;;;4191644;28;20238;-76
2024/02/07 03:04:25;;;;;;;3.87;1.60;;;10.60;99.90;;;;;;4209975;28;20233;-75
2024/02/07 03:06:38;;;;;;;6.50;2.10;;;10.60;99.90;;;;;;4209894;28;20209;-75
2024/02/07 03:08:43;;;;;;;5.07;1.60;;;10.60;99.90;;;;;;4210455;28;20223;-75
2024/02/07 03:10:44;;;;;;;3.43;1.40;;;10.60;99.90;;;;;;4211748;28;21142;-75
2024/02/07 03:12:46;;;;;;;4.87;1.80;;;10.60;99.90;;;;;;4210338;28;20210;-76
2024/02/07 03:14:48;;;;;;;6.13;1.67;;;10.60;99.90;;;;;;4212351;28;20246;-75
2024/02/07 03:16:49;;;;;;;8.67;1.50;;;10.60;99.90;;;;;;4221745;28;20219;-75
2024/02/07 03:18:52;;;;;;;7.73;1.87;;;10.60;99.90;;;;;;4214865;28;20572;-76
2024/02/07 03:20:55;;;;;;;4.50;1.50;;;10.60;99.90;;;;;;4193180;28;20231;-75
2024/02/07 03:22:57;;;;;;;3.40;1.60;;;10.50;99.90;;;;;;4212751;28;20589;-76
2024/02/07 03:24:59;;;;;;;7.80;1.50;;;10.50;99.90;;;;;;4204112;28;20201;-75
2024/02/07 03:27:01;;;;;;;4.43;1.87;;;10.50;99.90;;;;;;4195894;28;20638;-75
2024/02/07 03:29:03;;;;;;;4.93;2.00;;;10.50;99.90;;;;;;4210083;28;20215;-76
2024/02/07 03:31:08;;;;;;;5.57;1.70;;;10.50;99.90;;;;;;4211239;28;20239;-76
2024/02/07 03:33:13;;;;;;;5.77;1.80;;;10.60;99.90;;;;;;4192804;28;20220;-75
2024/02/07 03:35:17;;;;;;;4.63;1.77;;;10.60;99.90;;;;;;4212453;28;20220;-75
2024/02/07 03:37:19;;;;;;;5.07;1.53;;;10.60;99.90;;;;;;4193678;28;20300;-75
2024/02/07 03:39:22;;;;;;;4.40;1.50;;;10.60;99.90;;;;;;4214235;28;20260;-75
2024/02/07 03:41:25;;;;;;;7.60;1.60;;;10.60;99.90;;;;;;4215203;28;20228;-76
2024/02/07 03:43:28;;;;;;;7.80;2.33;;;10.60;99.90;;;;;;4208740;28;20201;-76
2024/02/07 03:45:33;;;;;;;5.73;2.00;;;10.60;99.90;;;;;;4213257;28;20731;-76
2024/02/07 03:47:35;;;;;;;5.33;1.77;;;10.60;99.90;;;;;;4213585;28;20206;-75
2024/02/07 03:49:38;;;;;;;6.70;1.40;;;10.60;99.90;;;;;;4211425;28;20751;-75
2024/02/07 03:51:41;;;;;;;5.23;1.43;;;10.60;99.90;;;;;;4202877;28;20224;-75
2024/02/07 03:53:44;;;;;;;3.73;1.50;;;10.60;99.90;;;;;;4211080;28;20201;-75
2024/02/07 03:55:48;;;;;;;5.67;1.63;;;10.60;99.90;;;;;;4211508;28;20228;-76
2024/02/07 03:57:49;;;;;;;5.07;1.80;;;10.40;99.90;;;;;;4209149;28;20255;-75
2024/02/07 03:59:51;;;;;;;2.60;1.33;;;10.60;99.90;;;;;;4195817;28;20233;-75
2024/02/07 04:01:53;;;;;;;4.70;1.53;;;10.60;99.90;;;;;;4211804;28;20231;-75
2024/02/07 04:03:55;;;;;;;5.63;1.40;;;10.60;99.90;;;;;;4211806;28;20208;-75
2024/02/07 04:05:57;;;;;;;4.13;1.50;;;10.60;99.90;;;;;;4210542;28;20283;-75
2024/02/07 04:08:01;;;;;;;4.30;1.33;;;10.60;99.90;;;;;;4192109;28;21194;-75
2024/02/07 04:10:03;;;;;;;5.77;1.40;;;10.60;99.90;;;;;;4210282;28;20224;-75
2024/02/07 05:16:48;;;;;;;2.20;1.13;;;10.60;99.90;;;;;;4211126;28;20204;-74
2024/02/07 05:18:49;;;;;;;2.37;1.20;;;10.40;99.90;;;;;;4191371;28;20258;-77
2024/02/07 05:20:50;;;;;;;2.47;0.90;;;10.30;99.90;;;;;;4193575;28;20225;-74
2024/02/07 05:22:51;;;;;;;1.03;0.70;;;10.00;99.90;;;;;;4212900;28;20198;-73
2024/02/07 05:24:54;;;;;;;1.00;0.63;;;9.80;99.90;;;;;;4210419;28;20205;-73
2024/02/07 05:26:55;;;;;;;1.77;0.70;;;9.60;99.90;;;;;;4213345;28;20215;-74
2024/02/07 05:28:58;;;;;;;1.50;0.50;;;9.30;99.90;;;;;;4211648;28;20708;-73
2024/02/07 05:31:00;;;;;;;0.40;0.20;;;9.00;99.90;;;;;;4211135;28;20226;-73
2024/02/07 05:33:02;;;;;;;0.93;0.50;;;8.60;99.90;;;;;;4212675;28;20424;-73
2024/02/07 05:35:05;;;;;;;2.47;0.43;;;8.40;99.90;;;;;;4212672;28;20274;-72
2024/02/07 05:37:06;;;;;;;0.93;0.63;;;8.10;99.90;;;;;;4212157;28;20212;-72
2024/02/07 05:39:07;;;;;;;0.57;0.30;;;7.90;99.90;;;;;;4193718;28;20931;-72
2024/02/07 05:41:10;;;;;;;0.77;0.30;;;7.70;99.90;;;;;;4213316;28;20311;-72
2024/02/07 05:43:11;;;;;;;2.10;0.40;;;7.50;99.90;;;;;;4212434;28;20233;-73
2024/02/07 05:45:15;;;;;;;1.30;0.40;;;7.40;99.90;;;;;;4212577;28;20229;-73
2024/02/07 05:47:17;;;;;;;1.07;0.57;;;7.20;99.90;;;;;;4214299;28;20209;-72
2024/02/07 05:49:19;;;;;;;1.00;0.80;;;7.10;99.90;;;;;;4211632;28;20223;-73
2024/02/07 05:51:21;;;;;;;2.50;0.60;;;6.90;99.90;;;;;;4208068;28;20313;-73
2024/02/07 05:53:23;;;;;;;1.20;0.70;;;6.80;99.90;;;;;;4208018;28;20212;-72
2024/02/07 05:55:25;;;;;;;7.00;0.70;;;6.70;99.90;;;;;;4212021;28;20304;-73
2024/02/07 05:57:27;;;;;;;3.03;0.70;;;6.60;99.90;;;;;;4212544;28;20209;-73
2024/02/07 05:59:29;;;;;;;2.13;1.07;;;6.50;99.90;;;;;;4206871;28;20639;-72
2024/02/07 06:01:32;;;;;;;2.73;0.67;;;6.50;99.90;;;;;;4210427;28;20240;-73
2024/02/07 06:03:34;;;;;;;1.17;0.50;;;6.40;99.90;;;;;;4213806;28;20457;-73
2024/02/07 06:05:37;;;;;;;1.57;0.77;;;6.30;99.90;;;;;;4208512;28;20247;-73
2024/02/07 06:07:42;;;;;;;1.30;0.60;;;6.30;99.90;;;;;;4212422;28;20461;-73
2024/02/07 06:09:45;;;;;;;0.80;0.53;;;6.20;99.90;;;;;;4215762;28;20457;-74
2024/02/07 06:11:47;;;;;;;0.90;0.70;;;6.20;99.90;;;;;;4213040;28;20589;-76
2024/02/07 06:13:48;;;;;;;0.90;0.60;;;6.20;99.90;;;;;;4193120;28;20542;-73
2024/02/07 06:15:52;;;;;;;2.00;0.97;;;6.20;99.90;;;;;;4194431;28;20479;-76
2024/02/07 06:17:56;;;;;;;2.87;1.03;;;6.00;99.90;;;;;;4207438;28;20479;-77
2024/02/07 06:19:58;;;;;;;4.00;1.27;;;6.00;99.90;;;;;;4202752;28;20543;-77
2024/02/07 06:21:59;;;;;;;2.23;1.00;;;5.90;99.90;;;;;;4187923;28;20444;-76
2024/02/07 06:24:01;;;;;;;1.03;0.70;;;5.90;99.90;;;;;;4208422;28;20482;-77
2024/02/07 06:26:04;;;;;;;1.67;0.70;;;5.90;99.90;;;;;;4207063;28;20539;-78
2024/02/07 06:28:07;;;;;;;1.37;0.80;;;5.90;99.90;;;;;;4176382;28;20464;-75
2024/02/07 06:30:10;;;;;;;7.23;1.10;;;5.80;99.90;;;;;;4191160;28;20467;-75
2024/02/07 06:32:12;;;;;;;2.67;0.60;;;5.80;99.90;;;;;;4190808;28;20975;-75
2024/02/07 06:34:15;;;;;;;4.47;0.60;;;5.70;99.90;;;;;;4207791;28;20454;-75
2024/02/07 06:36:17;;;;;;;5.53;0.60;;;5.60;99.90;;;;;;4210097;28;20474;-75
2024/02/07 06:38:19;;;;;;;3.20;0.70;;;5.50;99.90;;;;;;4209918;28;20470;-76
2024/02/07 06:40:21;;;;;;;1.60;0.60;;;5.50;99.90;;;;;;4189379;28;21304;-76
2024/02/07 06:42:23;;;;;;;1.03;0.60;;;5.40;99.90;;;;;;4209304;28;20504;-76
2024/02/07 06:44:24;;;;;;;1.37;0.80;;;5.30;99.90;;;;;;4208954;28;20459;-75
2024/02/07 06:46:25;;;;;;;3.77;1.20;;;5.30;99.90;;;;;;4207155;28;20488;-76
2024/02/07 06:48:27;;;;;;;2.30;1.07;;;5.20;99.90;;;;;;4205160;28;20463;-75
2024/02/07 06:50:31;;;;;;;2.70;1.10;;;5.10;99.90;;;;;;4208426;28;20478;-75
2024/02/07 06:52:33;;;;;;;3.27;1.03;;;5.10;99.90;;;;;;4194358;28;20475;-75
2024/02/07 06:54:35;;;;;;;1.80;1.20;;;5.10;99.90;;;;;;4204858;28;20498;-75
2024/02/07 06:56:35;;;;;;;4.37;1.40;;;5.00;99.90;;;;;;4207799;28;20485;-75
2024/02/07 06:58:37;;;;;;;5.20;1.47;;;5.00;99.90;;;;;;4210029;28;20818;-76
2024/02/07 07:00:39;;;;;;;3.00;1.50;;;4.90;99.90;;;;;;4209721;28;20231;-76
2024/02/07 07:02:41;;;;;;;1.90;0.90;;;4.90;99.90;;;;;;4190060;28;20444;-76
2024/02/07 07:04:43;;;;;;;2.17;0.80;;;4.80;99.90;;;;;;4210739;28;20442;-75
2024/02/07 07:06:46;;;;;;;4.00;0.87;;;4.80;99.90;;;;;;4207434;28;20455;-77
2024/02/07 07:08:48;;;;;;;1.53;0.53;;;4.70;99.90;;;;;;4207495;28;20921;-75
2024/02/07 07:10:50;;;;;;;3.80;0.73;;;4.60;99.90;;;;;;4189652;28;20484;-76
2024/02/07 07:12:54;;;;;;;2.40;0.73;;;4.60;99.90;;;;;;4208119;28;21217;-76
2024/02/07 07:14:56;;;;;;;2.57;0.80;;;4.50;99.90;;;;;;4208245;28;20916;-76
2024/02/07 07:16:58;;;;;;;3.30;0.63;;;4.40;99.90;;;;;;4211408;28;20465;-76
2024/02/07 07:19:01;;;;;;;2.60;0.70;;;4.30;99.90;;;;;;4208717;28;20899;-77
2024/02/07 07:21:03;;;;;;;5.47;0.90;;;4.20;99.90;;;;;;4209046;28;20467;-76
2024/02/07 07:23:06;;;;;;;1.87;0.70;;;4.20;99.90;;;;;;4193137;28;20444;-77
2024/02/07 07:25:08;;;;;;;2.90;0.80;;;4.10;99.90;;;;;;4192477;28;20482;-78
2024/02/07 07:27:10;;;;;;;2.63;1.00;;;4.00;99.90;;;;;;4193782;28;20472;-77
2024/02/07 07:29:12;;;;;;;2.90;0.70;;;3.90;99.90;;;;;;4206924;28;20452;-78
2024/02/07 07:31:14;;;;;;;13.23;1.30;;;3.90;99.90;;;;;;4206142;28;20467;-75
2024/02/07 07:33:16;;;;;;;5.80;1.10;;;3.80;99.90;;;;;;4196646;28;20535;-75
2024/02/07 07:35:18;;;;;;;5.17;0.80;;;3.80;99.90;;;;;;4205923;28;20469;-75
2024/02/07 07:37:19;;;;;;;7.30;0.67;;;3.70;99.90;;;;;;4209750;28;20469;-75
2024/02/07 07:39:22;;;;;;;7.50;1.00;;;3.70;99.90;;;;;;4202276;28;20471;-75
2024/02/07 07:41:24;;;;;;;9.80;1.17;;;3.70;99.90;;;;;;4205647;28;20459;-75
2024/02/07 07:43:26;;;;;;;3.37;0.83;;;3.70;99.90;;;;;;4206449;28;20448;-75
2024/02/07 07:45:28;;;;;;;2.93;1.23;;;3.70;99.90;;;;;;4205102;28;20478;-76
2024/02/07 07:47:30;;;;;;;7.17;1.60;;;3.70;99.90;;;;;;4193578;28;20454;-74
2024/02/07 07:49:32;;;;;;;16.10;3.00;;;3.70;99.90;;;;;;4209503;28;20551;-75
2024/02/07 07:51:34;;;;;;;13.73;2.70;;;3.60;99.90;;;;;;4209092;28;20955;-75
2024/02/07 07:53:36;;;;;;;3.40;1.50;;;3.60;99.90;;;;;;4192951;28;20487;-75
2024/02/07 07:55:39;;;;;;;4.00;1.10;;;3.60;99.90;;;;;;4207101;28;20455;-75
2024/02/07 07:57:40;;;;;;;3.23;0.80;;;3.50;99.90;;;;;;4207455;28;20490;-74
2024/02/07 07:59:42;;;;;;;9.27;1.20;;;3.50;99.90;;;;;;4191716;28;20999;-74
2024/02/07 08:01:44;;;;;;;8.87;1.10;;;3.50;99.90;;;;;;4215789;28;20214;-74
2024/02/07 08:03:46;;;;;;;1.90;0.77;;;3.50;99.90;;;;;;4210536;28;20554;-75
2024/02/07 08:05:48;;;;;;;4.97;0.80;;;3.50;99.90;;;;;;4209348;28;20527;-74
2024/02/07 08:07:49;;;;;;;5.70;0.97;;;3.40;99.90;;;;;;4192322;28;20461;-73
2024/02/07 08:09:51;;;;;;;5.43;0.77;;;3.40;99.90;;;;;;4207823;28;20441;-75
2024/02/07 08:11:54;;;;;;;5.67;2.10;;;3.40;99.90;;;;;;4206242;28;20631;-75
2024/02/07 08:13:55;;;;;;;6.57;0.97;;;3.40;99.90;;;;;;4208592;28;20534;-74
2024/02/07 08:15:57;;;;;;;11.43;0.93;;;3.40;99.90;;;;;;4210254;28;20552;-75
2024/02/07 08:17:58;;;;;;;4.27;1.07;;;3.40;99.90;;;;;;4184243;28;20317;-74
2024/02/07 08:20:00;;;;;;;8.73;1.07;;;3.40;99.90;;;;;;4209229;28;20978;-75
2024/02/07 08:22:02;;;;;;;3.07;1.00;;;3.40;99.90;;;;;;4206609;28;20205;-74
2024/02/07 08:24:03;;;;;;;7.27;0.97;;;3.30;99.90;;;;;;4208303;28;20451;-74
2024/02/07 08:26:06;;;;;;;3.47;0.87;;;3.30;99.90;;;;;;4208431;28;21031;-75
2024/02/07 08:28:09;;;;;;;2.67;0.70;;;3.30;99.90;;;;;;4209240;28;20509;-74
2024/02/07 08:30:12;;;;;;;7.13;0.80;;;3.30;99.90;;;;;;4206660;28;20531;-74
2024/02/07 08:32:14;;;;;;;4.83;0.90;;;3.20;99.90;;;;;;4202626;28;20480;-74
2024/02/07 08:34:17;;;;;;;4.03;0.80;;;3.20;99.90;;;;;;4205556;28;20458;-74
2024/02/07 08:36:18;;;;;;;6.73;0.90;;;3.20;99.90;;;;;;4206726;28;20986;-74
2024/02/07 08:38:19;;;;;;;2.57;0.80;;;3.20;99.90;;;;;;4191402;28;20522;-74
2024/02/07 08:40:20;;;;;;;4.93;0.80;;;3.20;99.90;;;;;;4203754;28;20648;-74
2024/02/07 08:42:22;;;;;;;5.50;0.80;;;3.20;99.90;;;;;;4205342;28;20447;-74
2024/02/07 08:44:25;;;;;;;2.33;0.80;;;3.20;99.90;;;;;;4191936;28;20209;-75
2024/02/07 08:46:27;;;;;;;5.00;0.87;;;3.10;99.90;;;;;;4205843;28;20459;-74
2024/02/07 08:48:28;;;;;;;5.03;1.20;;;3.10;99.90;;;;;;4205429;28;21327;-75
2024/02/07 08:50:30;;;;;;;5.60;0.97;;;3.10;99.90;;;;;;4208973;28;20489;-74
2024/02/07 08:52:31;;;;;;;2.77;0.90;;;3.00;99.90;;;;;;4192526;28;20472;-75
2024/02/07 08:54:34;;;;;;;4.60;0.80;;;3.10;99.90;;;;;;4204145;28;20998;-75
2024/02/07 08:56:36;;;;;;;2.90;1.00;;;3.00;99.90;;;;;;4206639;28;20466;-76
2024/02/07 08:58:38;;;;;;;31.10;1.53;;;3.00;99.90;;;;;;4209330;28;20440;-76
2024/02/07 09:00:42;;;;;;;2.33;1.00;;;3.00;99.90;;;;;;4211278;28;20509;-76
2024/02/07 09:02:49;;;;;;;6.50;0.87;;;3.00;99.90;;;;;;4210376;28;20431;-77
2024/02/07 09:04:51;;;;;;;8.60;0.77;;;2.90;99.90;;;;;;4192663;28;20456;-77
2024/02/07 09:06:53;;;;;;;1.70;0.60;;;2.90;99.90;;;;;;4210520;28;20455;-77
2024/02/07 09:08:55;;;;;;;5.20;0.90;;;2.80;99.90;;;;;;4207655;28;20455;-76
2024/02/07 09:10:57;;;;;;;4.67;1.10;;;2.80;99.90;;;;;;4210193;28;20466;-76
2024/02/07 09:13:00;;;;;;;4.27;0.90;;;2.80;99.90;;;;;;4209722;28;20471;-77
2024/02/07 09:15:02;;;;;;;4.50;0.70;;;2.70;99.90;;;;;;4194386;28;20539;-77
2024/02/07 09:17:05;;;;;;;2.47;0.90;;;3.00;99.90;;;;;;4211096;28;20462;-76
2024/02/07 09:19:08;;;;;;;6.73;1.30;;;2.70;99.90;;;;;;4190924;28;21045;-77
2024/02/07 09:21:10;;;;;;;3.27;0.90;;;2.70;99.90;;;;;;4195080;28;20464;-77
2024/02/07 09:23:12;;;;;;;4.20;0.97;;;2.70;99.90;;;;;;4213746;28;20494;-75
2024/02/07 09:25:14;;;;;;;2.60;0.70;;;2.70;99.90;;;;;;4207902;28;20559;-75
2024/02/07 09:27:16;;;;;;;4.23;0.80;;;2.70;99.90;;;;;;4207966;28;20546;-76
2024/02/07 09:29:18;;;;;;;3.07;0.80;;;2.60;99.90;;;;;;4210341;28;20439;-75
2024/02/07 09:31:20;;;;;;;3.63;0.60;;;2.60;99.90;;;;;;4211616;28;20489;-76
2024/02/07 09:33:23;;;;;;;3.70;0.90;;;2.60;99.90;;;;;;4208744;28;20507;-76
2024/02/07 09:35:25;;;;;;;1.13;0.50;;;2.70;99.90;;;;;;4211341;28;20807;-76
2024/02/07 09:37:27;;;;;;;6.63;0.70;;;2.70;99.90;;;;;;4203569;28;21011;-76
2024/02/07 09:39:29;;;;;;;1.80;0.77;;;2.70;99.90;;;;;;4206393;28;20460;-76
2024/02/07 09:41:33;;;;;;;6.43;0.80;;;2.70;99.90;;;;;;4211845;28;20958;-76
2024/02/07 09:43:35;;;;;;;5.73;0.87;;;2.70;99.90;;;;;;4213401;28;20442;-77
2024/02/07 09:45:41;;;;;;;2.53;1.00;;;2.70;99.90;;;;;;4207534;28;20457;-76
2024/02/07 09:47:50;;;;;;;2.87;0.90;;;2.80;99.90;;;;;;4193812;28;21024;-77
2024/02/07 09:49:55;;;;;;;7.97;1.10;;;2.80;99.90;;;;;;4207516;28;20464;-76
2024/02/07 09:51:57;;;;;;;3.33;0.97;;;2.80;99.90;;;;;;4212592;28;20467;-76
2024/02/07 09:54:00;;;;;;;3.70;1.10;;;2.80;99.90;;;;;;4209870;28;20475;-77
2024/02/07 09:56:03;;;;;;;3.27;1.20;;;2.90;99.90;;;;;;4214849;28;20451;-77
2024/02/07 09:58:08;;;;;;;4.97;1.23;;;2.90;99.90;;;;;;4188496;28;20453;-76
2024/02/07 10:00:11;;;;;;;2.27;1.27;;;2.90;99.90;;;;;;4210342;28;20461;-76
2024/02/07 10:02:17;;;;;;;5.20;1.10;;;2.90;99.90;;;;;;4210322;28;20452;-76
2024/02/07 10:04:26;;;;;;;5.63;0.73;;;2.90;99.90;;;;;;4212334;28;20454;-76
2024/02/07 10:06:29;;;;;;;2.73;0.90;;;2.90;99.90;;;;;;4210260;28;20435;-76
2024/02/07 10:08:31;;;;;;;1.97;1.00;;;3.10;99.90;;;;;;4208135;28;20981;-76
2024/02/07 10:10:32;;;;;;;4.93;0.80;;;2.90;99.90;;;;;;4208163;28;20470;-76
2024/02/07 10:12:34;;;;;;;3.87;0.67;;;2.90;99.90;;;;;;4208208;28;20443;-77
2024/02/07 10:14:36;;;;;;;5.33;0.80;;;2.90;99.90;;;;;;4195071;28;20481;-76
2024/02/07 10:16:38;;;;;;;0.50;0.40;;;2.90;99.90;;;;;;4201412;28;20467;-76
2024/02/07 10:18:39;;;;;;;4.70;1.00;;;2.90;99.90;;;;;;4200341;28;21615;-76
2024/02/07 10:20:52;;;;;;;4.57;0.90;;;2.90;99.90;;;;;;4194182;28;20533;-77
2024/02/07 10:22:55;;;;;;;6.23;0.90;;;2.90;99.90;;;;;;4208609;28;20428;-76
2024/02/07 10:24:57;;;;;;;3.40;0.90;;;2.90;99.90;;;;;;4213100;28;20447;-77
2024/02/07 10:26:58;;;;;;;3.83;0.63;;;2.90;99.90;;;;;;4206723;28;20504;-76
2024/02/07 10:29:00;;;;;;;3.13;0.67;;;2.90;99.90;;;;;;4210250;28;20443;-76
2024/02/07 10:31:03;;;;;;;3.83;0.83;;;3.00;99.90;;;;;;4205336;28;20537;-77
2024/02/07 10:33:05;;;;;;;3.97;0.90;;;3.00;99.90;;;;;;4197881;28;20497;-77
2024/02/07 10:35:10;;;;;;;7.47;1.00;;;3.00;99.90;;;;;;4207860;28;20455;-77
2024/02/07 10:37:11;;;;;;;4.93;0.83;;;3.00;99.90;;;;;;4204803;28;20954;-76
2024/02/07 10:39:14;;;;;;;8.70;0.93;;;3.00;99.90;;;;;;4208239;28;20458;-76
2024/02/07 10:41:16;;;;;;;2.60;0.70;;;3.10;99.90;;;;;;4190909;28;21003;-77
2024/02/07 10:43:24;;;;;;;7.40;1.03;;;3.10;99.90;;;;;;4206265;28;21122;-76
2024/02/07 10:45:27;;;;;;;1.97;0.70;;;3.10;99.90;;;;;;4214347;28;20478;-77
2024/02/07 10:47:32;;;;;;;4.80;0.83;;;3.20;99.90;;;;;;4201384;28;20735;-76
2024/02/07 10:49:34;;;;;;;2.93;0.90;;;3.20;99.90;;;;;;4188845;28;20505;-79
2024/02/07 10:51:36;;;;;;;4.03;0.60;;;3.20;99.90;;;;;;4203927;28;20475;-77
2024/02/07 10:53:37;;;;;;;7.27;0.60;;;3.20;99.90;;;;;;4207358;28;20491;-78
2024/02/07 10:55:41;;;;;;;2.23;0.60;;;3.20;99.90;;;;;;4209738;28;20872;-77
2024/02/07 10:57:46;;;;;;;5.30;0.60;;;3.30;99.90;;;;;;4206506;28;20460;-77
2024/02/07 10:59:49;;;;;;;2.90;0.67;;;3.20;99.90;;;;;;4200496;28;20508;-78
2024/02/07 11:01:51;;;;;;;1.27;0.60;;;3.20;99.90;;;;;;4208068;28;20554;-77
2024/02/07 11:03:53;;;;;;;2.77;0.87;;;3.30;99.90;;;;;;4206990;28;20459;-77
2024/02/07 11:05:55;;;;;;;7.93;1.07;;;3.20;99.90;;;;;;4209203;28;20451;-77
2024/02/07 11:07:56;;;;;;;9.73;1.10;;;3.30;99.90;;;;;;4209629;28;20444;-77
2024/02/07 11:09:58;;;;;;;6.43;1.33;;;3.30;99.90;;;;;;4206574;28;20536;-77
2024/02/07 11:12:03;;;;;;;4.50;1.37;;;3.30;99.90;;;;;;4187783;28;20198;-78
2024/02/07 11:14:07;;;;;;;3.90;1.10;;;3.30;99.90;;;;;;4204160;28;20479;-77
2024/02/07 11:16:12;;;;;;;2.80;1.00;;;3.30;99.90;;;;;;4204861;28;20537;-77
2024/02/07 11:18:14;;;;;;;3.10;1.20;;;3.10;99.90;;;;;;4208095;28;20546;-80
2024/02/07 11:20:16;;;;;;;6.20;1.10;;;3.30;99.90;;;;;;4204470;28;20504;-75
2024/02/07 11:22:21;;;;;;;5.90;0.97;;;3.30;99.90;;;;;;4207538;28;20451;-76
2024/02/07 11:24:23;;;;;;;3.93;1.10;;;3.30;99.90;;;;;;4204290;28;20893;-76
2024/02/07 11:26:25;;;;;;;1.93;0.90;;;3.30;99.90;;;;;;4204896;28;20961;-76
2024/02/07 11:28:29;;;;;;;4.27;0.70;;;3.40;99.90;;;;;;4209504;28;20539;-75
2024/02/07 11:30:31;;;;;;;4.43;0.97;;;3.40;99.90;;;;;;4206959;28;20561;-75
2024/02/07 11:32:32;;;;;;;5.33;0.90;;;3.40;99.90;;;;;;4203356;28;20955;-75
2024/02/07 11:34:37;;;;;;;4.87;1.20;;;3.40;99.90;;;;;;4206424;28;20486;-76
2024/02/07 11:36:41;;;;;;;2.70;1.07;;;3.40;99.90;;;;;;4205616;28;20203;-75
2024/02/07 11:38:48;;;;;;;7.23;1.80;;;3.30;99.90;;;;;;4213545;28;21014;-75
2024/02/07 11:40:50;;;;;;;2.20;0.77;;;3.30;99.90;;;;;;4203386;28;20473;-75
2024/02/07 11:43:02;;;;;;;4.73;0.60;;;3.30;99.90;;;;;;4203830;28;20455;-76
2024/02/07 11:45:07;;;;;;;1.27;0.80;;;3.40;99.90;;;;;;4204503;28;20488;-77
2024/02/07 11:47:09;;;;;;;1.77;0.70;;;3.40;99.90;;;;;;4203572;28;20448;-77
2024/02/07 11:49:17;;;;;;;4.93;0.97;;;3.40;99.90;;;;;;4187654;28;20453;-75